createdAt,value
2023-04-09T00:00:09.280Z,14.45
2023-04-09T00:02:39.200Z,19.98
2023-04-09T00:05:09.009Z,16.40
2023-04-09T00:07:38.276Z,19.13
2023-04-09T00:10:08.484Z,21.77
2023-04-09T00:12:38.803Z,19.25
2023-04-09T00:15:13.030Z,14.45
2023-04-09T00:17:47.278Z,14.05
2023-04-09T00:20:16.634Z,15.45
2023-04-09T00:22:45.803Z,13.70
2023-04-09T00:25:15.217Z,16.90
2023-04-09T00:27:44.390Z,14.15
2023-04-09T00:30:14.012Z,15.52
2023-04-09T00:32:43.486Z,16.63
2023-04-09T00:35:13.054Z,14.43
2023-04-09T00:37:42.326Z,18.02
2023-04-09T00:40:12.241Z,17.20
2023-04-09T00:42:42.757Z,16.58
2023-04-09T00:45:12.402Z,14.32
2023-04-09T00:47:44.085Z,13.20
2023-04-09T00:50:13.652Z,18.27
2023-04-09T00:52:42.997Z,13.30
2023-04-09T00:55:13.872Z,22.52
2023-04-09T00:57:43.123Z,14.88
2023-04-09T01:00:14.155Z,15.23
2023-04-09T01:02:44.851Z,17.02
2023-04-09T01:05:16.225Z,13.35
2023-04-09T01:08:23.844Z,19.20
2023-04-09T01:11:10.772Z,18.88
2023-04-09T01:13:58.690Z,15.98
2023-04-09T01:16:30.493Z,15.57
2023-04-09T01:19:11.121Z,16.55
2023-04-09T01:21:43.187Z,16.48
2023-04-09T01:24:58.362Z,23.42
2023-04-09T01:27:46.356Z,13.00
2023-04-09T01:30:19.305Z,11.80
2023-04-09T01:32:49.211Z,17.70
2023-04-09T01:38:13.990Z,18.40
2023-04-09T01:40:44.759Z,13.77
2023-04-09T01:43:24.064Z,12.85
2023-04-09T01:46:03.780Z,19.23
2023-04-09T01:48:35.577Z,18.05
2023-04-09T01:51:05.578Z,15.10
2023-04-09T01:53:41.239Z,12.13
2023-04-09T01:56:14.247Z,17.65
2023-04-09T01:58:43.566Z,18.48
2023-04-09T02:01:23.853Z,15.75
2023-04-09T02:04:29.494Z,17.25
2023-04-09T02:07:39.358Z,20.23
2023-04-09T02:10:12.983Z,20.48
2023-04-09T02:12:56.146Z,13.75
2023-04-09T02:16:25.209Z,11.23
2023-04-09T02:18:58.121Z,16.85
2023-04-09T02:21:28.466Z,15.50
2023-04-09T02:23:58.172Z,15.45
2023-04-09T02:26:27.455Z,14.93
2023-04-09T02:28:56.780Z,14.00
2023-04-09T02:31:26.125Z,17.63
2023-04-09T02:33:55.590Z,12.05
2023-04-09T02:36:24.887Z,13.85
2023-04-09T02:38:54.505Z,12.15
2023-04-09T02:41:23.672Z,14.10
2023-04-09T02:43:52.860Z,18.13
2023-04-09T02:46:22.135Z,17.35
2023-04-09T02:48:51.545Z,13.85
2023-04-09T02:51:22.214Z,13.20
2023-04-09T02:53:51.481Z,21.23
2023-04-09T02:56:20.714Z,15.88
2023-04-09T02:58:52.798Z,19.17
2023-04-09T03:01:22.696Z,16.55
2023-04-09T03:03:52.215Z,18.38
2023-04-09T03:06:21.564Z,14.00
2023-04-09T03:08:51.112Z,14.25
2023-04-09T03:11:20.460Z,17.45
2023-04-09T03:13:49.695Z,17.10
2023-04-09T03:16:19.105Z,16.55
2023-04-09T03:18:48.558Z,19.23
2023-04-09T03:21:17.789Z,15.55
2023-04-09T03:23:47.031Z,13.10
2023-04-09T03:26:16.540Z,17.15
2023-04-09T03:28:45.729Z,21.00
2023-04-09T03:31:15.080Z,19.00
2023-04-09T03:33:44.350Z,17.75
2023-04-09T03:36:13.561Z,15.60
2023-04-09T03:38:43.489Z,15.18
2023-04-09T03:41:12.740Z,17.58
2023-04-09T03:43:42.108Z,22.25
2023-04-09T03:46:19.199Z,16.35
2023-04-09T03:48:48.439Z,15.60
2023-04-09T03:51:18.586Z,21.85
2023-04-09T03:53:47.899Z,16.95
2023-04-09T03:56:17.249Z,15.45
2023-04-09T03:58:46.950Z,16.13
2023-04-09T04:01:16.541Z,16.67
2023-04-09T04:03:45.821Z,17.55
2023-04-09T04:06:15.271Z,17.38
2023-04-09T04:08:45.637Z,20.80
2023-04-09T04:11:15.868Z,14.95
2023-04-09T04:13:45.103Z,14.82
2023-04-09T04:16:14.292Z,16.42
2023-04-09T04:18:43.540Z,16.02
2023-04-09T04:21:19.336Z,19.80
2023-04-09T04:23:48.622Z,21.05
2023-04-09T04:26:17.818Z,17.58
2023-04-09T04:28:47.219Z,14.30
2023-04-09T04:31:16.650Z,16.40
2023-04-09T04:33:48.440Z,22.35
2023-04-09T04:36:17.646Z,20.90
2023-04-09T04:38:47.355Z,19.65
2023-04-09T04:41:17.036Z,15.52
2023-04-09T04:43:48.088Z,15.77
2023-04-09T04:46:17.563Z,18.77
2023-04-09T04:48:46.802Z,21.98
2023-04-09T04:51:16.174Z,21.02
2023-04-09T04:53:48.227Z,13.63
2023-04-09T04:56:17.954Z,18.67
2023-04-09T04:58:48.308Z,17.63
2023-04-09T05:01:17.553Z,13.70
2023-04-09T05:03:47.026Z,17.25
2023-04-09T05:06:16.217Z,16.42
2023-04-09T05:08:45.419Z,20.83
2023-04-09T05:11:16.184Z,14.50
2023-04-09T05:13:45.407Z,16.58
2023-04-09T05:16:23.145Z,14.23
2023-04-09T05:18:52.721Z,14.05
2023-04-09T05:21:22.104Z,15.27
2023-04-09T05:23:51.504Z,16.42
2023-04-09T05:26:20.674Z,20.20
2023-04-09T05:28:50.288Z,16.25
2023-04-09T05:31:20.045Z,17.02
2023-04-09T05:33:49.255Z,14.70
2023-04-09T05:36:20.525Z,15.07
2023-04-09T05:38:51.066Z,15.13
2023-04-09T05:41:20.479Z,18.10
2023-04-09T05:43:49.846Z,13.90
2023-04-09T05:46:19.154Z,14.57
2023-04-09T05:48:48.412Z,16.55
2023-04-09T05:51:17.597Z,16.48
2023-04-09T05:53:46.868Z,18.52
2023-04-09T05:56:18.886Z,18.08
2023-04-09T05:58:48.659Z,19.40
2023-04-09T06:01:17.817Z,13.18
2023-04-09T06:03:47.453Z,15.50
2023-04-09T06:06:16.982Z,14.68
2023-04-09T06:08:46.560Z,15.05
2023-04-09T06:11:15.925Z,15.32
2023-04-09T06:13:45.122Z,16.17
2023-04-09T06:16:14.284Z,14.88
2023-04-09T06:18:43.618Z,17.30
2023-04-09T06:21:14.446Z,14.13
2023-04-09T06:23:44.093Z,16.48
2023-04-09T06:26:13.305Z,17.08
2023-04-09T06:28:43.408Z,15.57
2023-04-09T06:31:13.207Z,13.70
2023-04-09T06:33:42.543Z,15.77
2023-04-09T06:36:12.240Z,14.23
2023-04-09T06:38:41.480Z,20.73
2023-04-09T06:41:12.752Z,13.02
2023-04-09T06:43:42.580Z,15.57
2023-04-09T06:46:11.859Z,20.67
2023-04-09T06:48:43.445Z,15.55
2023-04-09T06:51:13.458Z,14.35
2023-04-09T06:53:42.858Z,14.13
2023-04-09T06:56:12.310Z,15.68
2023-04-09T06:58:41.826Z,19.40
2023-04-09T07:01:11.602Z,20.60
2023-04-09T07:03:41.815Z,18.75
2023-04-09T07:06:11.235Z,17.73
2023-04-09T07:08:40.497Z,19.92
2023-04-09T07:11:09.927Z,14.50
2023-04-09T07:13:39.104Z,15.52
2023-04-09T07:16:08.461Z,17.48
2023-04-09T07:18:37.733Z,16.45
2023-04-09T07:21:06.941Z,22.15
2023-04-09T07:23:39.391Z,15.48
2023-04-09T07:26:08.695Z,14.70
2023-04-09T07:28:37.965Z,14.82
2023-04-09T07:31:07.373Z,20.95
2023-04-09T07:33:36.573Z,19.85
2023-04-09T07:36:06.611Z,16.98
2023-04-09T07:38:35.919Z,18.35
2023-04-09T07:41:05.197Z,15.93
2023-04-09T07:43:34.466Z,18.63
2023-04-09T07:46:03.812Z,18.63
2023-04-09T07:48:33.072Z,18.60
2023-04-09T07:51:02.297Z,15.90
2023-04-09T07:53:31.827Z,14.48
2023-04-09T07:56:01.025Z,17.95
2023-04-09T07:58:30.258Z,17.23
2023-04-09T08:00:59.539Z,15.68
2023-04-09T08:03:29.059Z,20.45
2023-04-09T08:05:58.645Z,19.30
2023-04-09T08:08:27.873Z,19.85
2023-04-09T08:10:57.253Z,18.38
2023-04-09T08:13:27.087Z,15.40
2023-04-09T08:15:56.358Z,15.98
2023-04-09T08:18:25.647Z,16.70
2023-04-09T08:20:54.840Z,22.00
2023-04-09T08:23:24.101Z,16.98
2023-04-09T08:25:53.309Z,25.98
2023-04-09T08:28:22.749Z,15.80
2023-04-09T08:30:52.045Z,14.82
2023-04-09T08:33:21.271Z,15.90
2023-04-09T08:35:50.535Z,18.52
2023-04-09T08:38:21.486Z,17.67
2023-04-09T08:40:50.891Z,15.35
2023-04-09T08:43:33.689Z,17.00
2023-04-09T08:46:17.720Z,16.25
2023-04-09T08:48:49.427Z,20.35
2023-04-09T08:51:24.715Z,17.23
2023-04-09T08:54:05.303Z,15.73
2023-04-09T08:56:34.865Z,18.65
2023-04-09T08:59:04.181Z,14.45
2023-04-09T09:01:34.609Z,16.00
2023-04-09T09:04:10.056Z,14.65
2023-04-09T09:06:42.635Z,14.98
2023-04-09T09:09:19.998Z,15.82
2023-04-09T09:11:54.047Z,14.88
2023-04-09T09:14:23.365Z,18.52
2023-04-09T09:16:59.073Z,19.20
2023-04-09T09:19:28.382Z,19.23
2023-04-09T09:22:06.126Z,19.63
2023-04-09T09:24:35.964Z,14.73
2023-04-09T09:27:05.345Z,13.55
2023-04-09T09:29:45.764Z,20.42
2023-04-09T09:32:16.160Z,20.70
2023-04-09T09:35:07.554Z,20.55
2023-04-09T09:37:36.982Z,20.23
2023-04-09T09:40:06.907Z,19.45
2023-04-09T09:42:36.627Z,18.15
2023-04-09T09:45:22.746Z,16.27
2023-04-09T09:47:53.449Z,15.43
2023-04-09T09:50:26.786Z,17.52
2023-04-09T09:53:05.086Z,17.58
2023-04-09T09:55:39.646Z,15.25
2023-04-09T09:58:24.594Z,17.60
2023-04-09T10:00:58.153Z,19.42
2023-04-09T10:03:33.189Z,17.30
2023-04-09T10:06:05.612Z,19.13
2023-04-09T10:08:36.974Z,18.88
2023-04-09T10:11:08.844Z,22.55
2023-04-09T10:13:47.868Z,20.23
2023-04-09T10:16:19.994Z,16.63
2023-04-09T10:18:49.580Z,16.73
2023-04-09T10:21:57.543Z,19.92
2023-04-09T10:24:27.267Z,17.00
2023-04-09T10:27:15.744Z,27.00
2023-04-09T10:29:49.028Z,20.17
2023-04-09T10:32:27.280Z,21.23
2023-04-09T10:35:01.739Z,22.20
2023-04-09T10:37:32.766Z,18.77
2023-04-09T10:40:04.782Z,20.10
2023-04-09T10:42:43.994Z,19.40
2023-04-09T10:45:17.785Z,20.88
2023-04-09T10:47:54.397Z,24.52
2023-04-09T10:50:28.867Z,17.38
2023-04-09T10:53:01.310Z,20.92
2023-04-09T10:55:40.136Z,20.77
2023-04-09T10:58:13.559Z,25.80
2023-04-09T11:00:45.899Z,20.27
2023-04-09T11:03:34.073Z,24.80
2023-04-09T11:06:10.146Z,22.40
2023-04-09T11:08:40.586Z,19.98
2023-04-09T11:11:09.790Z,26.55
2023-04-09T11:13:39.026Z,29.67
2023-04-09T11:16:08.420Z,20.90
2023-04-09T11:18:38.265Z,23.70
2023-04-09T11:21:08.057Z,28.40
2023-04-09T11:23:37.577Z,28.67
2023-04-09T11:26:07.115Z,26.63
2023-04-09T11:28:37.290Z,26.70
2023-04-09T11:31:08.126Z,25.10
2023-04-09T11:33:37.560Z,22.08
2023-04-09T11:36:09.975Z,22.73
2023-04-09T11:38:40.143Z,22.05
2023-04-09T11:41:13.823Z,22.23
2023-04-09T11:43:43.238Z,29.45
2023-04-09T11:46:12.977Z,26.75
2023-04-09T11:48:42.578Z,28.55
2023-04-09T11:51:11.952Z,25.95
2023-04-09T11:53:42.059Z,27.75
2023-04-09T11:56:12.930Z,27.15
2023-04-09T11:58:48.689Z,27.92
2023-04-09T12:01:18.183Z,22.98
2023-04-09T12:03:57.115Z,24.20
2023-04-09T12:06:27.774Z,33.80
2023-04-09T12:08:59.771Z,23.38
2023-04-09T12:11:33.548Z,26.58
2023-04-09T12:14:10.105Z,27.60
2023-04-09T12:16:42.390Z,26.50
2023-04-09T12:19:13.971Z,35.92
2023-04-09T12:21:59.282Z,28.02
2023-04-09T12:24:29.804Z,32.67
2023-04-09T12:26:59.160Z,44.25
2023-04-09T12:29:29.953Z,34.13
2023-04-09T12:31:59.825Z,36.03
2023-04-09T12:34:29.382Z,26.30
2023-04-09T12:36:59.156Z,32.58
2023-04-09T12:39:28.560Z,28.45
2023-04-09T12:41:58.750Z,34.60
2023-04-09T12:44:28.657Z,30.17
2023-04-09T12:46:57.909Z,33.25
2023-04-09T12:49:27.066Z,29.55
2023-04-09T12:51:56.325Z,33.47
2023-04-09T12:54:25.526Z,32.67
2023-04-09T12:56:54.698Z,31.35
2023-04-09T12:59:23.983Z,30.60
2023-04-09T13:01:53.339Z,34.20
2023-04-09T13:04:22.815Z,39.05
2023-04-09T13:06:52.033Z,37.30
2023-04-09T13:09:21.269Z,32.58
2023-04-09T13:11:50.462Z,34.58
2023-04-09T13:14:19.664Z,29.73
2023-04-09T13:16:49.141Z,32.35
2023-04-09T13:19:18.322Z,29.50
2023-04-09T13:21:48.193Z,33.50
2023-04-09T13:24:17.603Z,32.00
2023-04-09T13:26:46.883Z,24.90
2023-04-09T13:29:16.546Z,36.45
2023-04-09T13:31:45.794Z,34.00
2023-04-09T13:34:14.936Z,39.63
2023-04-09T13:36:44.514Z,32.53
2023-04-09T13:39:13.684Z,42.50
2023-04-09T13:41:43.076Z,40.53
2023-04-09T13:44:15.661Z,38.42
2023-04-09T13:46:45.120Z,47.05
2023-04-09T13:49:14.564Z,43.70
2023-04-09T13:51:43.726Z,42.40
2023-04-09T13:54:12.968Z,50.58
2023-04-09T13:56:42.353Z,46.92
2023-04-09T13:59:11.887Z,44.95
2023-04-09T14:01:41.893Z,46.78
2023-04-09T14:04:12.515Z,41.42
2023-04-09T14:06:43.286Z,45.17
2023-04-09T14:09:13.333Z,41.28
2023-04-09T14:11:42.559Z,40.90
2023-04-09T14:14:12.033Z,47.83
2023-04-09T14:16:41.380Z,42.35
2023-04-09T14:19:11.326Z,103.43
2023-04-09T14:21:42.044Z,50.45
2023-04-09T14:24:11.261Z,49.05
2023-04-09T14:26:40.452Z,40.35
2023-04-09T14:29:09.683Z,43.58
2023-04-09T14:31:38.970Z,39.63
2023-04-09T14:34:08.178Z,51.78
2023-04-09T14:36:37.859Z,45.80
2023-04-09T14:39:07.157Z,57.78
2023-04-09T14:41:37.556Z,51.78
2023-04-09T14:44:06.970Z,32.45
2023-04-09T14:46:37.593Z,41.58
2023-04-09T14:49:07.344Z,38.92
2023-04-09T14:51:36.774Z,42.28
2023-04-09T14:54:06.132Z,37.58
2023-04-09T14:56:35.436Z,37.17
2023-04-09T14:59:07.260Z,39.40
2023-04-09T15:01:36.746Z,34.75
2023-04-09T15:04:06.126Z,40.83
2023-04-09T15:06:35.508Z,42.20
2023-04-09T15:09:04.769Z,32.15
2023-04-09T15:11:34.153Z,38.65
2023-04-09T15:14:04.134Z,40.25
2023-04-09T15:16:38.101Z,37.97
2023-04-09T15:19:08.391Z,39.58
2023-04-09T15:21:37.781Z,36.92
2023-04-09T15:24:07.153Z,37.10
2023-04-09T15:26:39.372Z,34.83
2023-04-09T15:29:11.219Z,45.58
2023-04-09T15:31:41.621Z,36.75
2023-04-09T15:34:11.251Z,42.08
2023-04-09T15:36:40.713Z,35.35
2023-04-09T15:39:10.036Z,37.20
2023-04-09T15:41:39.559Z,35.90
2023-04-09T15:44:09.683Z,42.22
2023-04-09T15:46:40.418Z,38.45
2023-04-09T15:49:09.715Z,29.83
2023-04-09T15:51:39.024Z,33.08
2023-04-09T15:54:08.317Z,31.92
2023-04-09T15:56:40.647Z,35.80
2023-04-09T15:59:10.620Z,40.42
2023-04-09T16:01:39.984Z,34.13
2023-04-09T16:04:10.311Z,29.23
2023-04-09T16:06:40.541Z,32.30
2023-04-09T16:09:09.824Z,33.05
2023-04-09T16:11:39.181Z,48.00
2023-04-09T16:14:10.240Z,31.92
2023-04-09T16:16:39.732Z,26.60
2023-04-09T16:19:09.024Z,34.08
2023-04-09T16:21:38.479Z,37.25
2023-04-09T16:24:08.257Z,36.38
2023-04-09T16:26:37.479Z,38.67
2023-04-09T16:29:06.889Z,46.63
2023-04-09T16:31:37.699Z,46.40
2023-04-09T16:34:07.335Z,41.15
2023-04-09T16:36:42.191Z,47.70
2023-04-09T16:39:11.942Z,38.47
2023-04-09T16:41:41.362Z,44.42
2023-04-09T16:44:10.634Z,41.40
2023-04-09T16:46:39.895Z,41.55
2023-04-09T16:49:09.174Z,46.38
2023-04-09T16:51:39.160Z,37.03
2023-04-09T16:54:08.571Z,41.03
2023-04-09T16:56:37.789Z,40.47
2023-04-09T16:59:07.039Z,39.90
2023-04-09T17:01:36.465Z,40.42
2023-04-09T17:04:06.047Z,50.10
2023-04-09T17:06:35.293Z,37.75
2023-04-09T17:09:06.472Z,37.30
2023-04-09T17:11:35.897Z,39.08
2023-04-09T17:14:05.515Z,43.40
2023-04-09T17:16:34.967Z,37.65
2023-04-09T17:19:06.547Z,37.67
2023-04-09T17:21:35.804Z,40.03
2023-04-09T17:24:05.171Z,37.58
2023-04-09T17:26:35.164Z,35.50
2023-04-09T17:29:07.716Z,36.88
2023-04-09T17:31:36.968Z,42.35
2023-04-09T17:34:08.495Z,35.20
2023-04-09T17:36:38.031Z,32.03
2023-04-09T17:39:07.426Z,40.78
2023-04-09T17:41:37.458Z,36.10
2023-04-09T17:44:11.379Z,35.10
2023-04-09T17:46:47.100Z,34.97
2023-04-09T17:49:16.601Z,32.03
2023-04-09T17:51:51.600Z,32.72
2023-04-09T17:54:20.930Z,36.10
2023-04-09T17:56:50.479Z,38.35
2023-04-09T17:59:19.682Z,33.10
2023-04-09T18:01:51.892Z,31.80
2023-04-09T18:04:21.685Z,35.13
2023-04-09T18:06:51.530Z,29.70
2023-04-09T18:09:21.056Z,32.85
2023-04-09T18:11:54.381Z,29.33
2023-04-09T18:14:32.235Z,32.15
2023-04-09T18:17:02.143Z,30.92
2023-04-09T18:19:42.131Z,32.55
2023-04-09T18:22:14.961Z,33.78
2023-04-09T18:24:44.332Z,31.45
2023-04-09T18:27:13.531Z,34.58
2023-04-09T18:29:44.868Z,29.67
2023-04-09T18:32:14.110Z,30.13
2023-04-09T18:34:43.361Z,33.92
2023-04-09T18:37:13.258Z,30.38
2023-04-09T18:39:42.964Z,30.55
2023-04-09T18:42:12.419Z,32.45
2023-04-09T18:44:42.410Z,30.90
2023-04-09T18:47:15.814Z,32.83
2023-04-09T18:49:44.985Z,29.73
2023-04-09T18:52:14.288Z,29.85
2023-04-09T18:54:43.891Z,32.72
2023-04-09T18:57:13.161Z,30.30
2023-04-09T18:59:46.613Z,31.08
2023-04-09T19:02:15.976Z,31.80
2023-04-09T19:04:46.135Z,30.33
2023-04-09T19:07:20.762Z,32.47
2023-04-09T19:09:50.010Z,32.50
2023-04-09T19:12:19.305Z,33.72
2023-04-09T19:14:48.472Z,34.72
2023-04-09T19:17:18.204Z,33.20
2023-04-09T19:19:47.375Z,38.58
2023-04-09T19:22:17.202Z,34.58
2023-04-09T19:24:46.950Z,32.00
2023-04-09T19:27:16.157Z,37.88
2023-04-09T19:29:47.236Z,36.25
2023-04-09T19:32:16.443Z,42.72
2023-04-09T19:34:45.707Z,36.63
2023-04-09T19:37:16.193Z,35.30
2023-04-09T19:39:45.422Z,34.78
2023-04-09T19:42:14.670Z,35.40
2023-04-09T19:44:43.870Z,36.83
2023-04-09T19:47:13.213Z,36.00
2023-04-09T19:49:42.865Z,35.85
2023-04-09T19:52:12.138Z,33.97
2023-04-09T19:54:41.657Z,34.60
2023-04-09T19:57:10.884Z,32.47
2023-04-09T19:59:41.037Z,35.63
2023-04-09T20:02:10.470Z,37.50
2023-04-09T20:04:41.366Z,34.80
2023-04-09T20:07:10.653Z,35.30
2023-04-09T20:09:42.506Z,41.00
2023-04-09T20:12:12.268Z,38.08
2023-04-09T20:14:41.598Z,35.00
2023-04-09T20:17:11.732Z,35.40
2023-04-09T20:19:40.967Z,35.85
2023-04-09T20:22:10.300Z,35.72
2023-04-09T20:24:39.507Z,35.08
2023-04-09T20:27:08.722Z,34.58
2023-04-09T20:29:37.961Z,35.20
2023-04-09T20:32:07.577Z,37.75
2023-04-09T20:34:37.036Z,38.40
2023-04-09T20:37:07.768Z,36.17
2023-04-09T20:39:37.760Z,34.92
2023-04-09T20:42:07.144Z,33.75
2023-04-09T20:44:36.601Z,34.97
2023-04-09T20:47:05.956Z,36.85
2023-04-09T20:49:35.625Z,36.10
2023-04-09T20:52:04.894Z,36.10
2023-04-09T20:54:35.167Z,42.40
2023-04-09T20:57:06.571Z,34.17
2023-04-09T20:59:35.921Z,38.70
2023-04-09T21:02:05.335Z,35.25
2023-04-09T21:04:34.825Z,35.80
2023-04-09T21:07:04.332Z,34.58
2023-04-09T21:09:35.215Z,35.55
2023-04-09T21:12:04.701Z,38.10
2023-04-09T21:14:34.083Z,37.50
2023-04-09T21:17:03.534Z,37.53
2023-04-09T21:19:33.007Z,35.35
2023-04-09T21:22:02.635Z,35.88
2023-04-09T21:24:36.185Z,39.58
2023-04-09T21:27:07.953Z,37.65
2023-04-09T21:29:37.313Z,35.67
2023-04-09T21:32:07.034Z,35.40
2023-04-09T21:34:38.227Z,38.05
2023-04-09T21:37:08.667Z,40.28
2023-04-09T21:39:38.414Z,38.67
2023-04-09T21:42:09.723Z,39.78
2023-04-09T21:44:39.988Z,38.25
2023-04-09T21:47:09.979Z,36.67
2023-04-09T21:49:41.289Z,37.35
2023-04-09T21:52:15.470Z,36.13
2023-04-09T21:54:45.625Z,38.65
2023-04-09T21:57:15.049Z,42.50
2023-04-09T21:59:44.471Z,39.42
2023-04-09T22:02:13.905Z,38.88
2023-04-09T22:04:44.006Z,40.70
2023-04-09T22:07:13.764Z,40.50
2023-04-09T22:09:43.000Z,45.80
2023-04-09T22:12:12.194Z,44.63
2023-04-09T22:14:41.954Z,42.15
2023-04-09T22:17:11.344Z,49.10
2023-04-09T22:19:41.053Z,53.25
2023-04-09T22:22:13.141Z,43.17
2023-04-09T22:24:42.869Z,38.65
2023-04-09T22:27:12.294Z,36.60
2023-04-09T22:29:41.486Z,40.75
2023-04-09T22:32:10.934Z,38.70
2023-04-09T22:34:40.233Z,39.90
2023-04-09T22:37:10.178Z,37.60
2023-04-09T22:39:39.948Z,39.08
2023-04-09T22:42:11.362Z,36.20
2023-04-09T22:44:42.501Z,47.65
2023-04-09T22:47:11.911Z,41.42
2023-04-09T22:49:41.126Z,40.70
2023-04-09T22:52:10.618Z,41.40
2023-04-09T22:54:39.904Z,42.95
2023-04-09T22:57:09.155Z,43.28
2023-04-09T22:59:40.580Z,46.00
2023-04-09T23:02:10.581Z,46.17
2023-04-09T23:04:39.934Z,44.42
2023-04-09T23:07:10.433Z,52.33
2023-04-09T23:09:39.645Z,45.03
2023-04-09T23:12:08.879Z,44.22
2023-04-09T23:14:38.434Z,46.50
2023-04-09T23:17:07.693Z,49.90
2023-04-09T23:19:36.915Z,47.15
2023-04-09T23:22:06.742Z,46.63
2023-04-09T23:24:35.984Z,52.17
2023-04-09T23:27:05.316Z,70.25
2023-04-09T23:29:34.622Z,60.38
2023-04-09T23:32:04.178Z,48.20
2023-04-09T23:34:34.071Z,47.10
2023-04-09T23:37:03.931Z,48.63
2023-04-09T23:39:34.217Z,53.42
2023-04-09T23:42:03.429Z,54.65
2023-04-09T23:44:33.604Z,49.85
2023-04-09T23:47:03.662Z,51.70
2023-04-09T23:49:33.236Z,48.25
2023-04-09T23:52:02.464Z,56.25
2023-04-09T23:54:31.833Z,53.22
2023-04-09T23:57:01.173Z,51.35
2023-04-09T23:59:34.768Z,53.58
